CEB967 RPLL-RPMD
Flight info
| Callsign | CEB967 |
|---|---|
| Flight time | 1h 25m |
| Altitude | 37000 |
| Route | IPATA2R IPATA B462 MASBA W9A BN W9 RIMAR RIMAR2P |
| Aircraft | A321/M-SDE3FGHIRWY/LB1 |
Departure
| Time | 2026-05-05 15:16 |
|---|---|
| Airport | Ninoy Aquino International Airport (RPLL) |
Arrival
| Time | 2026-05-05 16:41 |
|---|---|
| Airport | Francisco Bangoy International Airport (RPMD) |
| Time | Latitude | Longitude | Altitude | Speed | Heading |
|---|---|---|---|---|---|
| 2026-05-05 14:38 | 14.52295 | 121.00899 | 84 ft | 0 kts | 44° |
| 2026-05-05 15:00 | 14.52294 | 121.00897 | 84 ft | 1 kts | 44° |
| 2026-05-05 15:00 | 14.52280 | 121.00883 | 84 ft | 2 kts | 44° |
| 2026-05-05 15:00 | 14.52269 | 121.00872 | 84 ft | 2 kts | 44° |
| 2026-05-05 15:01 | 14.52258 | 121.00861 | 84 ft | 2 kts | 44° |
| 2026-05-05 15:01 | 14.52247 | 121.00851 | 84 ft | 2 kts | 44° |
| 2026-05-05 15:01 | 14.52237 | 121.00840 | 84 ft | 2 kts | 44° |
| 2026-05-05 15:01 | 14.52226 | 121.00830 | 84 ft | 2 kts | 44° |
| 2026-05-05 15:02 | 14.52215 | 121.00819 | 84 ft | 1 kts | 44° |
| 2026-05-05 15:02 | 14.52210 | 121.00813 | 84 ft | 1 kts | 87° |
| 2026-05-05 15:02 | 14.52212 | 121.00806 | 84 ft | 0 kts | 136° |
| 2026-05-05 15:02 | 14.52206 | 121.00814 | 84 ft | 1 kts | 128° |
| 2026-05-05 15:03 | 14.52204 | 121.00816 | 84 ft | 0 kts | 129° |
| 2026-05-05 15:04 | 14.52202 | 121.00818 | 84 ft | 1 kts | 135° |
| 2026-05-05 15:05 | 14.52167 | 121.00855 | 84 ft | 6 kts | 135° |
| 2026-05-05 15:05 | 14.52131 | 121.00891 | 84 ft | 8 kts | 135° |
| 2026-05-05 15:05 | 14.52084 | 121.00940 | 84 ft | 11 kts | 135° |
| 2026-05-05 15:06 | 14.52021 | 121.01005 | 84 ft | 14 kts | 135° |
| 2026-05-05 15:06 | 14.51944 | 121.01086 | 84 ft | 17 kts | 135° |
| 2026-05-05 15:06 | 14.51856 | 121.01176 | 84 ft | 18 kts | 135° |
| 2026-05-05 15:06 | 14.51762 | 121.01273 | 84 ft | 19 kts | 135° |
| 2026-05-05 15:07 | 14.51665 | 121.01373 | 84 ft | 20 kts | 135° |
| 2026-05-05 15:07 | 14.51563 | 121.01478 | 84 ft | 20 kts | 135° |
| 2026-05-05 15:07 | 14.51464 | 121.01582 | 84 ft | 20 kts | 135° |
| 2026-05-05 15:07 | 14.51367 | 121.01682 | 84 ft | 19 kts | 135° |
| 2026-05-05 15:08 | 14.51274 | 121.01778 | 84 ft | 18 kts | 135° |
| 2026-05-05 15:08 | 14.51183 | 121.01872 | 84 ft | 18 kts | 135° |
| 2026-05-05 15:08 | 14.51114 | 121.01943 | 84 ft | 12 kts | 135° |
| 2026-05-05 15:08 | 14.51059 | 121.01988 | 84 ft | 7 kts | 179° |
| 2026-05-05 15:09 | 14.51016 | 121.01943 | 84 ft | 10 kts | 239° |
| 2026-05-05 15:09 | 14.50973 | 121.01865 | 84 ft | 14 kts | 240° |
| 2026-05-05 15:09 | 14.50918 | 121.01767 | 84 ft | 17 kts | 240° |
| 2026-05-05 15:09 | 14.50854 | 121.01651 | 84 ft | 20 kts | 240° |
| 2026-05-05 15:10 | 14.50780 | 121.01518 | 84 ft | 22 kts | 240° |
| 2026-05-05 15:10 | 14.50699 | 121.01372 | 84 ft | 24 kts | 240° |
| 2026-05-05 15:10 | 14.50614 | 121.01218 | 84 ft | 25 kts | 240° |
| 2026-05-05 15:10 | 14.50526 | 121.01061 | 84 ft | 25 kts | 240° |
| 2026-05-05 15:11 | 14.50437 | 121.00902 | 84 ft | 25 kts | 240° |
| 2026-05-05 15:11 | 14.50348 | 121.00741 | 84 ft | 25 kts | 240° |
| 2026-05-05 15:11 | 14.50258 | 121.00578 | 84 ft | 25 kts | 239° |
| 2026-05-05 15:11 | 14.50169 | 121.00418 | 84 ft | 25 kts | 240° |
| 2026-05-05 15:12 | 14.50082 | 121.00262 | 84 ft | 24 kts | 240° |
| 2026-05-05 15:12 | 14.49999 | 121.00112 | 84 ft | 22 kts | 240° |
| 2026-05-05 15:12 | 14.49939 | 121.00004 | 84 ft | 11 kts | 240° |
| 2026-05-05 15:12 | 14.49891 | 120.99963 | 84 ft | 7 kts | 179° |
| 2026-05-05 15:13 | 14.49842 | 120.99985 | 84 ft | 8 kts | 150° |
| 2026-05-05 15:13 | 14.49799 | 121.00016 | 84 ft | 6 kts | 114° |
| 2026-05-05 15:13 | 14.49810 | 121.00060 | 84 ft | 3 kts | 60° |
| 2026-05-05 15:13 | 14.49811 | 121.00061 | 84 ft | 0 kts | 60° |
| 2026-05-05 15:15 | 14.49831 | 121.00098 | 84 ft | 27 kts | 60° |
| 2026-05-05 15:15 | 14.50049 | 121.00490 | 84 ft | 96 kts | 60° |
| 2026-05-05 15:16 | 14.50484 | 121.01271 | 84 ft | 153 kts | 60° |
| 2026-05-05 15:16 | 14.51045 | 121.02289 | 488 ft | 164 kts | 62° |
| 2026-05-05 15:16 | 14.51607 | 121.03301 | 1125 ft | 161 kts | 62° |
| 2026-05-05 15:16 | 14.52168 | 121.04298 | 1685 ft | 163 kts | 62° |
| 2026-05-05 15:17 | 14.52736 | 121.05316 | 2111 ft | 164 kts | 62° |
| 2026-05-05 15:17 | 14.53307 | 121.06345 | 2419 ft | 168 kts | 62° |
| 2026-05-05 15:17 | 14.53900 | 121.07417 | 2767 ft | 172 kts | 62° |
| 2026-05-05 15:17 | 14.54474 | 121.08504 | 3219 ft | 169 kts | 73° |
| 2026-05-05 15:18 | 14.54433 | 121.09705 | 3462 ft | 174 kts | 121° |
| 2026-05-05 15:18 | 14.53644 | 121.10688 | 3725 ft | 185 kts | 136° |
| 2026-05-05 15:18 | 14.52699 | 121.11680 | 4009 ft | 199 kts | 137° |
| 2026-05-05 15:18 | 14.51687 | 121.12735 | 4299 ft | 214 kts | 136° |
| 2026-05-05 15:19 | 14.50585 | 121.13889 | 4545 ft | 235 kts | 136° |
| 2026-05-05 15:19 | 14.49383 | 121.15158 | 4889 ft | 253 kts | 136° |
| 2026-05-05 15:19 | 14.48113 | 121.16501 | 5280 ft | 270 kts | 136° |
| 2026-05-05 15:19 | 14.46782 | 121.17908 | 5921 ft | 276 kts | 136° |
| 2026-05-05 15:20 | 14.45443 | 121.19326 | 6634 ft | 280 kts | 137° |
| 2026-05-05 15:20 | 14.44077 | 121.20772 | 7336 ft | 284 kts | 137° |
| 2026-05-05 15:20 | 14.42686 | 121.22242 | 8004 ft | 289 kts | 137° |
| 2026-05-05 15:20 | 14.41269 | 121.23738 | 8649 ft | 294 kts | 137° |
| 2026-05-05 15:21 | 14.39823 | 121.25265 | 9301 ft | 299 kts | 137° |
| 2026-05-05 15:21 | 14.38351 | 121.26819 | 9964 ft | 304 kts | 136° |
| 2026-05-05 15:21 | 14.36845 | 121.28407 | 10480 ft | 314 kts | 136° |
| 2026-05-05 15:21 | 14.35267 | 121.30070 | 10830 ft | 329 kts | 136° |
| 2026-05-05 15:22 | 14.33642 | 121.31785 | 11393 ft | 336 kts | 135° |
| 2026-05-05 15:22 | 14.32017 | 121.33502 | 12028 ft | 340 kts | 135° |
| 2026-05-05 15:22 | 14.30347 | 121.35270 | 12667 ft | 344 kts | 135° |
| 2026-05-05 15:22 | 14.28661 | 121.37057 | 13331 ft | 346 kts | 135° |
| 2026-05-05 15:23 | 14.26980 | 121.38837 | 13991 ft | 349 kts | 135° |
| 2026-05-05 15:23 | 14.25268 | 121.40647 | 14647 ft | 351 kts | 136° |
| 2026-05-05 15:23 | 14.23565 | 121.42445 | 15286 ft | 353 kts | 136° |
| 2026-05-05 15:23 | 14.21844 | 121.44259 | 15920 ft | 355 kts | 136° |
| 2026-05-05 15:24 | 14.20105 | 121.46092 | 16550 ft | 357 kts | 136° |
| 2026-05-05 15:24 | 14.18364 | 121.47927 | 17168 ft | 359 kts | 136° |
| 2026-05-05 15:24 | 14.16601 | 121.49784 | 17781 ft | 361 kts | 136° |
| 2026-05-05 15:24 | 14.14851 | 121.51627 | 18379 ft | 363 kts | 136° |
| 2026-05-05 15:25 | 14.13064 | 121.53509 | 18974 ft | 365 kts | 136° |
| 2026-05-05 15:25 | 14.11290 | 121.55376 | 19547 ft | 367 kts | 136° |
| 2026-05-05 15:25 | 14.09503 | 121.57258 | 20111 ft | 369 kts | 136° |
| 2026-05-05 15:25 | 14.07701 | 121.59154 | 20667 ft | 371 kts | 136° |
| 2026-05-05 15:26 | 14.05895 | 121.61054 | 21212 ft | 373 kts | 136° |
| 2026-05-05 15:26 | 14.04069 | 121.62974 | 21752 ft | 375 kts | 136° |
| 2026-05-05 15:26 | 14.02229 | 121.64910 | 22279 ft | 377 kts | 136° |
| 2026-05-05 15:26 | 14.00387 | 121.66846 | 22789 ft | 379 kts | 136° |
| 2026-05-05 15:27 | 13.98531 | 121.68797 | 23290 ft | 381 kts | 136° |
| 2026-05-05 15:27 | 13.96659 | 121.70764 | 23780 ft | 383 kts | 136° |
| 2026-05-05 15:27 | 13.94797 | 121.72721 | 24254 ft | 385 kts | 136° |
| 2026-05-05 15:27 | 13.92924 | 121.74689 | 24719 ft | 387 kts | 136° |
| 2026-05-05 15:28 | 13.91018 | 121.76690 | 25178 ft | 389 kts | 136° |
| 2026-05-05 15:28 | 13.89122 | 121.78681 | 25621 ft | 391 kts | 136° |
| 2026-05-05 15:28 | 13.87181 | 121.80734 | 26065 ft | 394 kts | 135° |
| 2026-05-05 15:28 | 13.85363 | 121.82842 | 26491 ft | 396 kts | 132° |
| 2026-05-05 15:29 | 13.83559 | 121.85048 | 26917 ft | 398 kts | 131° |
| 2026-05-05 15:29 | 13.81775 | 121.87244 | 27323 ft | 400 kts | 131° |
| 2026-05-05 15:29 | 13.79965 | 121.89470 | 27726 ft | 402 kts | 131° |
| 2026-05-05 15:29 | 13.78169 | 121.91676 | 28112 ft | 404 kts | 131° |
| 2026-05-05 15:30 | 13.76347 | 121.93913 | 28489 ft | 406 kts | 131° |
| 2026-05-05 15:30 | 13.74535 | 121.96133 | 28851 ft | 408 kts | 131° |
| 2026-05-05 15:30 | 13.72696 | 121.98388 | 29209 ft | 410 kts | 131° |
| 2026-05-05 15:30 | 13.70841 | 122.00660 | 29558 ft | 412 kts | 131° |
| 2026-05-05 15:31 | 13.69006 | 122.02907 | 29895 ft | 414 kts | 131° |
| 2026-05-05 15:31 | 13.67141 | 122.05188 | 30225 ft | 416 kts | 131° |
| 2026-05-05 15:31 | 13.65260 | 122.07490 | 30548 ft | 418 kts | 131° |
| 2026-05-05 15:31 | 13.63397 | 122.09769 | 30856 ft | 420 kts | 131° |
| 2026-05-05 15:32 | 13.61509 | 122.12078 | 31159 ft | 422 kts | 130° |
| 2026-05-05 15:32 | 13.59600 | 122.14411 | 31460 ft | 423 kts | 130° |
| 2026-05-05 15:32 | 13.57691 | 122.16745 | 31753 ft | 425 kts | 130° |
| 2026-05-05 15:32 | 13.55786 | 122.19071 | 32030 ft | 427 kts | 130° |
| 2026-05-05 15:33 | 13.53852 | 122.21434 | 32304 ft | 429 kts | 130° |
| 2026-05-05 15:33 | 13.51944 | 122.23764 | 32565 ft | 430 kts | 130° |
| 2026-05-05 15:33 | 13.50007 | 122.26128 | 32820 ft | 432 kts | 130° |
| 2026-05-05 15:33 | 13.48043 | 122.28525 | 33083 ft | 433 kts | 130° |
| 2026-05-05 15:34 | 13.46116 | 122.30877 | 33413 ft | 433 kts | 130° |
| 2026-05-05 15:34 | 13.44171 | 122.33250 | 33767 ft | 431 kts | 130° |
| 2026-05-05 15:34 | 13.42231 | 122.35615 | 34101 ft | 430 kts | 130° |
| 2026-05-05 15:34 | 13.40297 | 122.37972 | 34413 ft | 429 kts | 130° |
| 2026-05-05 15:35 | 13.38359 | 122.40334 | 34718 ft | 429 kts | 130° |
| 2026-05-05 15:35 | 13.36446 | 122.42666 | 35013 ft | 428 kts | 130° |
| 2026-05-05 15:35 | 13.34511 | 122.45022 | 35296 ft | 428 kts | 130° |
| 2026-05-05 15:35 | 13.32604 | 122.47345 | 35525 ft | 428 kts | 130° |
| 2026-05-05 15:36 | 13.30663 | 122.49708 | 35727 ft | 429 kts | 130° |
| 2026-05-05 15:36 | 13.28748 | 122.52038 | 35918 ft | 430 kts | 130° |
| 2026-05-05 15:36 | 13.26806 | 122.54401 | 36112 ft | 431 kts | 130° |
| 2026-05-05 15:36 | 13.24861 | 122.56767 | 36296 ft | 431 kts | 130° |
| 2026-05-05 15:37 | 13.22919 | 122.59129 | 36465 ft | 432 kts | 130° |
| 2026-05-05 15:37 | 13.20985 | 122.61479 | 36625 ft | 433 kts | 130° |
| 2026-05-05 15:37 | 13.19046 | 122.63836 | 36778 ft | 434 kts | 130° |
| 2026-05-05 15:37 | 13.17070 | 122.66237 | 36913 ft | 435 kts | 130° |
| 2026-05-05 15:38 | 13.15234 | 122.68466 | 36920 ft | 437 kts | 130° |
| 2026-05-05 15:38 | 13.11267 | 122.73283 | 36925 ft | 446 kts | 130° |
| 2026-05-05 15:39 | 13.07216 | 122.78202 | 36926 ft | 452 kts | 131° |
| 2026-05-05 15:39 | 13.03105 | 122.83188 | 36925 ft | 458 kts | 131° |
| 2026-05-05 15:40 | 12.98976 | 122.88193 | 36925 ft | 462 kts | 131° |
| 2026-05-05 15:40 | 12.94801 | 122.93248 | 36925 ft | 464 kts | 131° |
| 2026-05-05 15:41 | 12.90612 | 122.98319 | 36925 ft | 465 kts | 131° |
| 2026-05-05 15:41 | 12.86622 | 123.03147 | 36925 ft | 465 kts | 130° |
| 2026-05-05 15:42 | 12.84725 | 123.05416 | 36938 ft | 465 kts | 130° |
| 2026-05-05 15:42 | 12.80565 | 123.10453 | 36961 ft | 465 kts | 130° |
| 2026-05-05 15:43 | 12.78017 | 123.13547 | 36979 ft | 465 kts | 130° |
| 2026-05-05 15:43 | 12.73845 | 123.18595 | 36956 ft | 465 kts | 130° |
| 2026-05-05 15:44 | 12.69649 | 123.23656 | 36937 ft | 465 kts | 130° |
| 2026-05-05 15:44 | 12.65458 | 123.28713 | 36929 ft | 465 kts | 130° |
| 2026-05-05 15:45 | 12.61264 | 123.33770 | 36926 ft | 465 kts | 130° |
| 2026-05-05 15:45 | 12.57050 | 123.38847 | 36925 ft | 465 kts | 130° |
| 2026-05-05 15:46 | 12.52869 | 123.43883 | 36925 ft | 465 kts | 130° |
| 2026-05-05 15:46 | 12.48675 | 123.48930 | 36925 ft | 465 kts | 130° |
| 2026-05-05 15:47 | 12.44474 | 123.53982 | 36925 ft | 465 kts | 130° |
| 2026-05-05 15:47 | 12.40075 | 123.58868 | 36925 ft | 465 kts | 136° |
| 2026-05-05 15:48 | 12.35178 | 123.63207 | 36925 ft | 464 kts | 143° |
| 2026-05-05 15:48 | 12.29830 | 123.66931 | 36925 ft | 464 kts | 149° |
| 2026-05-05 15:49 | 12.24199 | 123.70110 | 36925 ft | 464 kts | 152° |
| 2026-05-05 15:49 | 12.18508 | 123.73236 | 36925 ft | 464 kts | 152° |
| 2026-05-05 15:50 | 12.12799 | 123.76376 | 36925 ft | 464 kts | 152° |
| 2026-05-05 15:50 | 12.07107 | 123.79511 | 36925 ft | 464 kts | 152° |
| 2026-05-05 15:51 | 12.01436 | 123.82636 | 36925 ft | 464 kts | 152° |
| 2026-05-05 15:51 | 11.95720 | 123.85783 | 36925 ft | 464 kts | 152° |
| 2026-05-05 15:52 | 11.90049 | 123.88904 | 36925 ft | 464 kts | 152° |
| 2026-05-05 15:52 | 11.84367 | 123.92030 | 36925 ft | 464 kts | 152° |
| 2026-05-05 15:53 | 11.78650 | 123.95174 | 36925 ft | 464 kts | 152° |
| 2026-05-05 15:53 | 11.72944 | 123.98311 | 36925 ft | 464 kts | 152° |
| 2026-05-05 15:54 | 11.67265 | 124.01430 | 36925 ft | 464 kts | 152° |
| 2026-05-05 15:54 | 11.61544 | 124.04572 | 36925 ft | 464 kts | 152° |
| 2026-05-05 15:55 | 11.55873 | 124.07684 | 36925 ft | 464 kts | 152° |
| 2026-05-05 15:55 | 11.50190 | 124.10802 | 36925 ft | 464 kts | 152° |
| 2026-05-05 15:56 | 11.44512 | 124.13915 | 36925 ft | 464 kts | 152° |
| 2026-05-05 15:56 | 11.38815 | 124.17037 | 36925 ft | 464 kts | 152° |
| 2026-05-05 15:57 | 11.33102 | 124.20167 | 36925 ft | 464 kts | 152° |
| 2026-05-05 15:57 | 11.27439 | 124.23267 | 36925 ft | 464 kts | 152° |
| 2026-05-05 15:58 | 11.21735 | 124.26388 | 36925 ft | 464 kts | 152° |
| 2026-05-05 15:58 | 11.16034 | 124.29507 | 36925 ft | 464 kts | 152° |
| 2026-05-05 15:59 | 11.10343 | 124.32616 | 36925 ft | 464 kts | 152° |
| 2026-05-05 15:59 | 11.04632 | 124.35727 | 36925 ft | 464 kts | 152° |
| 2026-05-05 16:00 | 10.98924 | 124.38802 | 36925 ft | 464 kts | 152° |
| 2026-05-05 16:00 | 10.93235 | 124.41862 | 36925 ft | 463 kts | 152° |
| 2026-05-05 16:01 | 10.87532 | 124.44930 | 36926 ft | 463 kts | 152° |
| 2026-05-05 16:01 | 10.81776 | 124.48025 | 36924 ft | 464 kts | 152° |
| 2026-05-05 16:02 | 10.76248 | 124.51000 | 36925 ft | 464 kts | 152° |
| 2026-05-05 16:02 | 10.70523 | 124.54113 | 36925 ft | 464 kts | 152° |
| 2026-05-05 16:03 | 10.64806 | 124.57224 | 36925 ft | 464 kts | 152° |
| 2026-05-05 16:03 | 10.59108 | 124.60318 | 36925 ft | 464 kts | 152° |
| 2026-05-05 16:04 | 10.53390 | 124.63422 | 36926 ft | 464 kts | 152° |
| 2026-05-05 16:04 | 10.47704 | 124.66505 | 36925 ft | 463 kts | 152° |
| 2026-05-05 16:05 | 10.41997 | 124.69598 | 36925 ft | 464 kts | 152° |
| 2026-05-05 16:05 | 10.36308 | 124.72681 | 36925 ft | 464 kts | 152° |
| 2026-05-05 16:06 | 10.30605 | 124.75770 | 36925 ft | 464 kts | 152° |
| 2026-05-05 16:06 | 10.24919 | 124.78848 | 36925 ft | 464 kts | 152° |
| 2026-05-05 16:07 | 10.19183 | 124.81953 | 36925 ft | 464 kts | 152° |
| 2026-05-05 16:07 | 10.13510 | 124.85023 | 36925 ft | 463 kts | 152° |
| 2026-05-05 16:08 | 10.08007 | 124.87999 | 36925 ft | 462 kts | 152° |
| 2026-05-05 16:08 | 10.02448 | 124.91003 | 36926 ft | 461 kts | 152° |
| 2026-05-05 16:09 | 9.96746 | 124.94083 | 36925 ft | 460 kts | 152° |
| 2026-05-05 16:09 | 9.91069 | 124.97148 | 36925 ft | 460 kts | 152° |
| 2026-05-05 16:10 | 9.85416 | 125.00198 | 36926 ft | 459 kts | 152° |
| 2026-05-05 16:10 | 9.79753 | 125.03253 | 36925 ft | 458 kts | 152° |
| 2026-05-05 16:11 | 9.74083 | 125.06312 | 36925 ft | 458 kts | 152° |
| 2026-05-05 16:12 | 9.62821 | 125.12375 | 36925 ft | 458 kts | 152° |
| 2026-05-05 16:13 | 9.48675 | 125.19938 | 36925 ft | 458 kts | 153° |
| 2026-05-05 16:13 | 9.43044 | 125.22938 | 36925 ft | 458 kts | 153° |
| 2026-05-05 16:14 | 9.31754 | 125.28953 | 36925 ft | 458 kts | 153° |
| 2026-05-05 16:15 | 9.20460 | 125.34965 | 36925 ft | 458 kts | 153° |
| 2026-05-05 16:16 | 9.14971 | 125.37881 | 36764 ft | 437 kts | 153° |
| 2026-05-05 16:16 | 9.09632 | 125.40717 | 35826 ft | 432 kts | 153° |
| 2026-05-05 16:17 | 9.04296 | 125.43550 | 34478 ft | 436 kts | 152° |
| 2026-05-05 16:17 | 9.01568 | 125.44933 | 33758 ft | 438 kts | 155° |
| 2026-05-05 16:18 | 8.95885 | 125.47201 | 32329 ft | 440 kts | 162° |
| 2026-05-05 16:18 | 8.92950 | 125.48062 | 31851 ft | 435 kts | 165° |
| 2026-05-05 16:18 | 8.87027 | 125.49214 | 30942 ft | 425 kts | 172° |
| 2026-05-05 16:19 | 8.84108 | 125.49536 | 30502 ft | 420 kts | 174° |
| 2026-05-05 16:19 | 8.81178 | 125.49829 | 30059 ft | 415 kts | 174° |
| 2026-05-05 16:19 | 8.75481 | 125.50396 | 29189 ft | 405 kts | 174° |
| 2026-05-05 16:20 | 8.70042 | 125.50944 | 28349 ft | 396 kts | 174° |
| 2026-05-05 16:20 | 8.64618 | 125.51493 | 27498 ft | 388 kts | 174° |
| 2026-05-05 16:21 | 8.59275 | 125.52035 | 26644 ft | 380 kts | 174° |
| 2026-05-05 16:22 | 8.51569 | 125.52811 | 25391 ft | 369 kts | 175° |
| 2026-05-05 16:22 | 8.46513 | 125.53268 | 24549 ft | 363 kts | 175° |
| 2026-05-05 16:23 | 8.41515 | 125.53713 | 23703 ft | 358 kts | 175° |
| 2026-05-05 16:23 | 8.39007 | 125.53938 | 23272 ft | 356 kts | 175° |
| 2026-05-05 16:23 | 8.34103 | 125.54376 | 22421 ft | 352 kts | 175° |
| 2026-05-05 16:24 | 8.31683 | 125.54593 | 21997 ft | 350 kts | 176° |
| 2026-05-05 16:24 | 8.29245 | 125.54812 | 21566 ft | 348 kts | 176° |
| 2026-05-05 16:24 | 8.24446 | 125.55241 | 20710 ft | 345 kts | 176° |
| 2026-05-05 16:25 | 8.22045 | 125.55456 | 20278 ft | 343 kts | 176° |
| 2026-05-05 16:25 | 8.17299 | 125.55881 | 19417 ft | 340 kts | 176° |
| 2026-05-05 16:25 | 8.14946 | 125.56091 | 18989 ft | 339 kts | 176° |
| 2026-05-05 16:26 | 8.10274 | 125.56509 | 18128 ft | 337 kts | 176° |
| 2026-05-05 16:26 | 8.05602 | 125.56927 | 17258 ft | 335 kts | 176° |
| 2026-05-05 16:27 | 8.03276 | 125.57134 | 16822 ft | 335 kts | 176° |
| 2026-05-05 16:27 | 8.00936 | 125.57344 | 16382 ft | 334 kts | 177° |
| 2026-05-05 16:27 | 7.98629 | 125.57552 | 15947 ft | 333 kts | 176° |
| 2026-05-05 16:27 | 7.96318 | 125.57866 | 15507 ft | 334 kts | 172° |
| 2026-05-05 16:28 | 7.94038 | 125.58331 | 15068 ft | 334 kts | 169° |
| 2026-05-05 16:28 | 7.91774 | 125.58838 | 14617 ft | 334 kts | 169° |
| 2026-05-05 16:28 | 7.89492 | 125.59354 | 14156 ft | 334 kts | 169° |
| 2026-05-05 16:28 | 7.87218 | 125.59866 | 13704 ft | 333 kts | 169° |
| 2026-05-05 16:29 | 7.84949 | 125.60375 | 13258 ft | 333 kts | 169° |
| 2026-05-05 16:29 | 7.82686 | 125.60883 | 12814 ft | 332 kts | 169° |
| 2026-05-05 16:29 | 7.80457 | 125.61382 | 12377 ft | 330 kts | 169° |
| 2026-05-05 16:29 | 7.78200 | 125.61886 | 11936 ft | 329 kts | 169° |
| 2026-05-05 16:30 | 7.75944 | 125.62389 | 11494 ft | 328 kts | 169° |
| 2026-05-05 16:30 | 7.73724 | 125.62884 | 11062 ft | 326 kts | 169° |
| 2026-05-05 16:30 | 7.71504 | 125.63380 | 10634 ft | 324 kts | 169° |
| 2026-05-05 16:30 | 7.69310 | 125.63869 | 10232 ft | 321 kts | 169° |
| 2026-05-05 16:31 | 7.67185 | 125.64345 | 10082 ft | 309 kts | 169° |
| 2026-05-05 16:31 | 7.65101 | 125.64812 | 9867 ft | 301 kts | 169° |
| 2026-05-05 16:31 | 7.63039 | 125.65272 | 9465 ft | 299 kts | 169° |
| 2026-05-05 16:31 | 7.61013 | 125.65723 | 9088 ft | 297 kts | 169° |
| 2026-05-05 16:32 | 7.58997 | 125.66174 | 8713 ft | 296 kts | 169° |
| 2026-05-05 16:32 | 7.57010 | 125.66618 | 8349 ft | 294 kts | 168° |
| 2026-05-05 16:32 | 7.55015 | 125.67064 | 7984 ft | 292 kts | 168° |
| 2026-05-05 16:32 | 7.53018 | 125.67510 | 7620 ft | 290 kts | 168° |
| 2026-05-05 16:33 | 7.51068 | 125.67949 | 7270 ft | 287 kts | 168° |
| 2026-05-05 16:33 | 7.49129 | 125.68384 | 6929 ft | 285 kts | 168° |
| 2026-05-05 16:33 | 7.47178 | 125.68816 | 6562 ft | 284 kts | 168° |
| 2026-05-05 16:33 | 7.45249 | 125.69247 | 6182 ft | 283 kts | 168° |
| 2026-05-05 16:34 | 7.43335 | 125.69675 | 6028 ft | 275 kts | 168° |
| 2026-05-05 16:34 | 7.41510 | 125.70084 | 6020 ft | 260 kts | 168° |
| 2026-05-05 16:34 | 7.39808 | 125.70466 | 6017 ft | 244 kts | 168° |
| 2026-05-05 16:34 | 7.38153 | 125.70836 | 6020 ft | 240 kts | 168° |
| 2026-05-05 16:35 | 7.36546 | 125.71191 | 5834 ft | 238 kts | 168° |
| 2026-05-05 16:35 | 7.34902 | 125.71556 | 5465 ft | 239 kts | 168° |
| 2026-05-05 16:35 | 7.33309 | 125.71999 | 5140 ft | 238 kts | 156° |
| 2026-05-05 16:35 | 7.31894 | 125.72882 | 4821 ft | 235 kts | 141° |
| 2026-05-05 16:36 | 7.30667 | 125.73930 | 4460 ft | 231 kts | 138° |
| 2026-05-05 16:36 | 7.29470 | 125.75002 | 4095 ft | 227 kts | 137° |
| 2026-05-05 16:36 | 7.28305 | 125.76037 | 3789 ft | 220 kts | 138° |
| 2026-05-05 16:36 | 7.27164 | 125.77035 | 3515 ft | 213 kts | 138° |
| 2026-05-05 16:37 | 7.26050 | 125.77973 | 3349 ft | 200 kts | 145° |
| 2026-05-05 16:37 | 7.24776 | 125.78313 | 3169 ft | 187 kts | 190° |
| 2026-05-05 16:37 | 7.23711 | 125.77740 | 3048 ft | 168 kts | 227° |
| 2026-05-05 16:37 | 7.22976 | 125.76881 | 2958 ft | 159 kts | 233° |
| 2026-05-05 16:38 | 7.22287 | 125.76002 | 2839 ft | 159 kts | 233° |
| 2026-05-05 16:38 | 7.21586 | 125.75126 | 2581 ft | 157 kts | 232° |
| 2026-05-05 16:38 | 7.20896 | 125.74286 | 2354 ft | 153 kts | 232° |
| 2026-05-05 16:38 | 7.20216 | 125.73477 | 2132 ft | 149 kts | 231° |
| 2026-05-05 16:39 | 7.19541 | 125.72683 | 1939 ft | 148 kts | 231° |
| 2026-05-05 16:39 | 7.18871 | 125.71898 | 1741 ft | 148 kts | 230° |
| 2026-05-05 16:39 | 7.18191 | 125.71105 | 1547 ft | 148 kts | 230° |
| 2026-05-05 16:39 | 7.17510 | 125.70322 | 1352 ft | 147 kts | 230° |
| 2026-05-05 16:40 | 7.16832 | 125.69538 | 1153 ft | 147 kts | 230° |
| 2026-05-05 16:40 | 7.16155 | 125.68758 | 953 ft | 146 kts | 229° |
| 2026-05-05 16:40 | 7.15476 | 125.67990 | 751 ft | 146 kts | 229° |
| 2026-05-05 16:40 | 7.14807 | 125.67210 | 560 ft | 146 kts | 229° |
| 2026-05-05 16:41 | 7.14143 | 125.66436 | 350 ft | 145 kts | 230° |
| 2026-05-05 16:41 | 7.13488 | 125.65669 | 149 ft | 143 kts | 230° |
| 2026-05-05 16:41 | 7.12874 | 125.64954 | 104 ft | 108 kts | 229° |
| 2026-05-05 16:41 | 7.12584 | 125.64616 | 104 ft | 13 kts | 229° |
| 2026-05-05 16:42 | 7.12572 | 125.64558 | 104 ft | 8 kts | 309° |
| 2026-05-05 16:42 | 7.12619 | 125.64515 | 104 ft | 9 kts | 319° |
| 2026-05-05 16:42 | 7.12671 | 125.64470 | 104 ft | 10 kts | 319° |
| 2026-05-05 16:42 | 7.12736 | 125.64455 | 104 ft | 10 kts | 28° |
| 2026-05-05 16:43 | 7.12788 | 125.64509 | 104 ft | 11 kts | 49° |
| 2026-05-05 16:43 | 7.12829 | 125.64552 | 104 ft | 6 kts | 27° |
| 2026-05-05 16:43 | 7.12873 | 125.64539 | 104 ft | 6 kts | 319° |
| 2026-05-05 16:43 | 7.12897 | 125.64519 | 104 ft | 1 kts | 319° |
| 2026-05-05 16:44 | 7.12902 | 125.64514 | 104 ft | 0 kts | 319° |
| 2026-05-05 16:44 | 7.12908 | 125.64509 | 104 ft | 0 kts | 319° |
| 2026-05-05 16:44 | 7.12909 | 125.64508 | 104 ft | 0 kts | 319° |